sensor_id;sensor_type;location;lat;lon;timestamp;P1;durP1;ratioP1;P2;durP2;ratioP2
57891;SDS011;43708;48.828;9.166;2023-04-01T00:02:00;12.35;;;9.52;;
57891;SDS011;43708;48.828;9.166;2023-04-01T00:04:26;11.35;;;8.57;;
57891;SDS011;43708;48.828;9.166;2023-04-01T00:06:52;12.88;;;10.00;;
57891;SDS011;43708;48.828;9.166;2023-04-01T00:09:17;12.63;;;9.27;;
57891;SDS011;43708;48.828;9.166;2023-04-01T00:11:43;12.50;;;9.27;;
57891;SDS011;43708;48.828;9.166;2023-04-01T00:14:10;11.50;;;8.73;;
57891;SDS011;43708;48.828;9.166;2023-04-01T00:16:36;11.68;;;8.82;;
57891;SDS011;43708;48.828;9.166;2023-04-01T00:19:05;11.25;;;8.63;;
57891;SDS011;43708;48.828;9.166;2023-04-01T00:21:31;10.88;;;8.38;;
57891;SDS011;43708;48.828;9.166;2023-04-01T00:23:56;12.57;;;9.93;;
57891;SDS011;43708;48.828;9.166;2023-04-01T00:26:22;9.88;;;7.63;;
57891;SDS011;43708;48.828;9.166;2023-04-01T00:28:49;10.35;;;8.15;;
57891;SDS011;43708;48.828;9.166;2023-04-01T00:31:15;9.38;;;7.55;;
57891;SDS011;43708;48.828;9.166;2023-04-01T00:33:41;10.52;;;8.05;;
57891;SDS011;43708;48.828;9.166;2023-04-01T00:36:10;11.23;;;8.75;;
57891;SDS011;43708;48.828;9.166;2023-04-01T00:38:40;10.20;;;7.47;;
57891;SDS011;43708;48.828;9.166;2023-04-01T00:41:08;13.88;;;9.75;;
57891;SDS011;43708;48.828;9.166;2023-04-01T00:43:39;11.38;;;8.02;;
57891;SDS011;43708;48.828;9.166;2023-04-01T00:46:06;8.70;;;6.50;;
57891;SDS011;43708;48.828;9.166;2023-04-01T00:48:33;10.68;;;8.02;;
57891;SDS011;43708;48.828;9.166;2023-04-01T00:53:31;9.07;;;7.05;;
57891;SDS011;43708;48.828;9.166;2023-04-01T00:56:13;9.18;;;7.30;;
57891;SDS011;43708;48.828;9.166;2023-04-01T00:58:43;9.98;;;8.13;;
57891;SDS011;43708;48.828;9.166;2023-04-01T01:01:13;9.82;;;7.53;;
57891;SDS011;43708;48.828;9.166;2023-04-01T01:03:38;10.15;;;7.50;;
57891;SDS011;43708;48.828;9.166;2023-04-01T01:08:52;8.85;;;6.95;;
57891;SDS011;43708;48.828;9.166;2023-04-01T01:11:37;9.38;;;7.65;;
57891;SDS011;43708;48.828;9.166;2023-04-01T01:16:53;9.68;;;7.82;;
57891;SDS011;43708;48.828;9.166;2023-04-01T01:24:58;10.75;;;7.65;;
57891;SDS011;43708;48.828;9.166;2023-04-01T01:27:58;10.65;;;7.93;;
57891;SDS011;43708;48.828;9.166;2023-04-01T01:30:41;9.73;;;7.45;;
57891;SDS011;43708;48.828;9.166;2023-04-01T01:36:09;9.77;;;7.57;;
57891;SDS011;43708;48.828;9.166;2023-04-01T01:38:37;11.48;;;8.30;;
57891;SDS011;43708;48.828;9.166;2023-04-01T01:41:04;11.88;;;9.00;;
57891;SDS011;43708;48.828;9.166;2023-04-01T01:43:41;10.52;;;8.20;;
57891;SDS011;43708;48.828;9.166;2023-04-01T01:46:12;9.68;;;7.25;;
57891;SDS011;43708;48.828;9.166;2023-04-01T01:48:41;8.75;;;7.00;;
57891;SDS011;43708;48.828;9.166;2023-04-01T01:51:08;8.38;;;7.20;;
57891;SDS011;43708;48.828;9.166;2023-04-01T01:53:34;9.93;;;7.85;;
57891;SDS011;43708;48.828;9.166;2023-04-01T01:56:00;8.50;;;7.13;;
57891;SDS011;43708;48.828;9.166;2023-04-01T02:01:07;10.05;;;7.65;;
57891;SDS011;43708;48.828;9.166;2023-04-01T02:03:37;8.48;;;6.38;;
57891;SDS011;43708;48.828;9.166;2023-04-01T02:06:06;8.60;;;6.43;;
57891;SDS011;43708;48.828;9.166;2023-04-01T02:08:36;7.43;;;6.28;;
57891;SDS011;43708;48.828;9.166;2023-04-01T02:11:45;7.97;;;6.35;;
57891;SDS011;43708;48.828;9.166;2023-04-01T02:19:39;5.97;;;4.80;;
57891;SDS011;43708;48.828;9.166;2023-04-01T02:22:11;6.00;;;4.15;;
57891;SDS011;43708;48.828;9.166;2023-04-01T02:24:41;5.85;;;4.53;;
57891;SDS011;43708;48.828;9.166;2023-04-01T02:27:09;6.43;;;4.70;;
57891;SDS011;43708;48.828;9.166;2023-04-01T02:29:35;5.72;;;4.55;;
57891;SDS011;43708;48.828;9.166;2023-04-01T02:32:01;6.18;;;4.88;;
57891;SDS011;43708;48.828;9.166;2023-04-01T02:34:28;5.40;;;4.28;;
57891;SDS011;43708;48.828;9.166;2023-04-01T02:36:54;5.78;;;4.65;;
57891;SDS011;43708;48.828;9.166;2023-04-01T02:39:21;7.43;;;4.95;;
57891;SDS011;43708;48.828;9.166;2023-04-01T02:41:47;5.50;;;4.40;;
57891;SDS011;43708;48.828;9.166;2023-04-01T02:44:13;4.63;;;4.10;;
57891;SDS011;43708;48.828;9.166;2023-04-01T02:46:40;6.13;;;5.13;;
57891;SDS011;43708;48.828;9.166;2023-04-01T02:49:06;6.97;;;5.30;;
57891;SDS011;43708;48.828;9.166;2023-04-01T02:51:32;4.55;;;3.92;;
57891;SDS011;43708;48.828;9.166;2023-04-01T02:53:58;4.40;;;3.88;;
57891;SDS011;43708;48.828;9.166;2023-04-01T02:56:24;5.15;;;4.32;;
57891;SDS011;43708;48.828;9.166;2023-04-01T02:58:50;5.68;;;4.45;;
57891;SDS011;43708;48.828;9.166;2023-04-01T03:01:16;4.70;;;3.92;;
57891;SDS011;43708;48.828;9.166;2023-04-01T03:03:42;6.78;;;4.35;;
57891;SDS011;43708;48.828;9.166;2023-04-01T03:06:09;4.75;;;3.95;;
57891;SDS011;43708;48.828;9.166;2023-04-01T03:08:36;5.45;;;3.88;;
57891;SDS011;43708;48.828;9.166;2023-04-01T03:11:02;4.45;;;4.03;;
57891;SDS011;43708;48.828;9.166;2023-04-01T03:13:28;5.63;;;3.72;;
57891;SDS011;43708;48.828;9.166;2023-04-01T03:15:54;5.32;;;4.38;;
57891;SDS011;43708;48.828;9.166;2023-04-01T03:18:20;4.50;;;3.85;;
57891;SDS011;43708;48.828;9.166;2023-04-01T03:20:46;4.80;;;4.15;;
57891;SDS011;43708;48.828;9.166;2023-04-01T03:23:11;4.68;;;3.70;;
57891;SDS011;43708;48.828;9.166;2023-04-01T03:25:37;5.78;;;4.18;;
57891;SDS011;43708;48.828;9.166;2023-04-01T03:28:03;4.85;;;3.80;;
57891;SDS011;43708;48.828;9.166;2023-04-01T03:30:28;5.57;;;4.03;;
57891;SDS011;43708;48.828;9.166;2023-04-01T03:32:56;4.78;;;3.55;;
57891;SDS011;43708;48.828;9.166;2023-04-01T03:35:22;5.18;;;4.13;;
57891;SDS011;43708;48.828;9.166;2023-04-01T03:37:50;4.95;;;3.90;;
57891;SDS011;43708;48.828;9.166;2023-04-01T03:40:16;4.30;;;3.17;;
57891;SDS011;43708;48.828;9.166;2023-04-01T03:42:42;4.57;;;3.75;;
57891;SDS011;43708;48.828;9.166;2023-04-01T03:45:08;4.38;;;3.55;;
57891;SDS011;43708;48.828;9.166;2023-04-01T03:47:34;4.05;;;3.35;;
57891;SDS011;43708;48.828;9.166;2023-04-01T03:50:00;5.03;;;3.80;;
57891;SDS011;43708;48.828;9.166;2023-04-01T03:52:26;4.38;;;3.50;;
57891;SDS011;43708;48.828;9.166;2023-04-01T03:54:51;4.97;;;3.78;;
57891;SDS011;43708;48.828;9.166;2023-04-01T03:57:17;4.53;;;3.67;;
57891;SDS011;43708;48.828;9.166;2023-04-01T03:59:42;5.30;;;3.78;;
57891;SDS011;43708;48.828;9.166;2023-04-01T04:02:08;5.18;;;3.97;;
57891;SDS011;43708;48.828;9.166;2023-04-01T04:04:34;4.35;;;3.28;;
57891;SDS011;43708;48.828;9.166;2023-04-01T04:06:59;4.18;;;3.50;;
57891;SDS011;43708;48.828;9.166;2023-04-01T04:09:25;5.60;;;3.90;;
57891;SDS011;43708;48.828;9.166;2023-04-01T04:11:50;4.50;;;3.67;;
57891;SDS011;43708;48.828;9.166;2023-04-01T04:14:16;5.10;;;3.00;;
57891;SDS011;43708;48.828;9.166;2023-04-01T04:16:42;4.00;;;3.33;;
57891;SDS011;43708;48.828;9.166;2023-04-01T04:19:07;3.97;;;3.08;;
57891;SDS011;43708;48.828;9.166;2023-04-01T04:21:33;4.25;;;3.28;;
57891;SDS011;43708;48.828;9.166;2023-04-01T04:24:02;4.43;;;3.28;;
57891;SDS011;43708;48.828;9.166;2023-04-01T04:26:27;4.20;;;3.25;;
57891;SDS011;43708;48.828;9.166;2023-04-01T04:28:53;4.15;;;3.35;;
57891;SDS011;43708;48.828;9.166;2023-04-01T04:31:20;3.42;;;2.90;;
57891;SDS011;43708;48.828;9.166;2023-04-01T04:33:47;3.80;;;3.20;;
57891;SDS011;43708;48.828;9.166;2023-04-01T04:36:13;3.70;;;3.00;;
57891;SDS011;43708;48.828;9.166;2023-04-01T04:38:39;3.17;;;2.65;;
57891;SDS011;43708;48.828;9.166;2023-04-01T04:41:08;3.85;;;2.80;;
57891;SDS011;43708;48.828;9.166;2023-04-01T04:43:35;4.07;;;3.08;;
57891;SDS011;43708;48.828;9.166;2023-04-01T04:46:03;4.75;;;3.08;;
57891;SDS011;43708;48.828;9.166;2023-04-01T04:48:32;4.05;;;2.88;;
57891;SDS011;43708;48.828;9.166;2023-04-01T04:50:58;3.00;;;2.65;;
57891;SDS011;43708;48.828;9.166;2023-04-01T04:53:24;3.20;;;2.85;;
57891;SDS011;43708;48.828;9.166;2023-04-01T04:55:50;3.03;;;2.33;;
57891;SDS011;43708;48.828;9.166;2023-04-01T04:58:16;3.50;;;2.78;;
57891;SDS011;43708;48.828;9.166;2023-04-01T05:00:42;3.60;;;2.67;;
57891;SDS011;43708;48.828;9.166;2023-04-01T05:03:08;2.95;;;2.65;;
57891;SDS011;43708;48.828;9.166;2023-04-01T05:05:34;3.00;;;2.40;;
57891;SDS011;43708;48.828;9.166;2023-04-01T05:08:00;2.88;;;2.58;;
57891;SDS011;43708;48.828;9.166;2023-04-01T05:10:25;3.53;;;2.75;;
57891;SDS011;43708;48.828;9.166;2023-04-01T05:12:51;3.15;;;2.42;;
57891;SDS011;43708;48.828;9.166;2023-04-01T05:15:17;3.10;;;2.80;;
57891;SDS011;43708;48.828;9.166;2023-04-01T05:17:42;3.03;;;2.42;;
57891;SDS011;43708;48.828;9.166;2023-04-01T05:20:08;3.95;;;2.95;;
57891;SDS011;43708;48.828;9.166;2023-04-01T05:22:34;3.38;;;2.75;;
57891;SDS011;43708;48.828;9.166;2023-04-01T05:25:00;3.67;;;2.85;;
57891;SDS011;43708;48.828;9.166;2023-04-01T05:27:25;3.47;;;2.80;;
57891;SDS011;43708;48.828;9.166;2023-04-01T05:29:51;4.28;;;2.70;;
57891;SDS011;43708;48.828;9.166;2023-04-01T05:32:17;4.07;;;3.17;;
57891;SDS011;43708;48.828;9.166;2023-04-01T05:34:42;3.47;;;3.08;;
57891;SDS011;43708;48.828;9.166;2023-04-01T05:37:08;3.17;;;2.80;;
57891;SDS011;43708;48.828;9.166;2023-04-01T05:39:37;3.03;;;2.60;;
57891;SDS011;43708;48.828;9.166;2023-04-01T05:42:05;3.97;;;2.92;;
57891;SDS011;43708;48.828;9.166;2023-04-01T05:44:31;5.15;;;3.33;;
57891;SDS011;43708;48.828;9.166;2023-04-01T05:46:56;3.40;;;2.63;;
57891;SDS011;43708;48.828;9.166;2023-04-01T05:49:22;5.63;;;3.80;;
57891;SDS011;43708;48.828;9.166;2023-04-01T05:51:48;4.43;;;2.90;;
57891;SDS011;43708;48.828;9.166;2023-04-01T05:54:13;3.95;;;3.13;;
57891;SDS011;43708;48.828;9.166;2023-04-01T05:56:39;4.35;;;3.58;;
57891;SDS011;43708;48.828;9.166;2023-04-01T05:59:04;4.65;;;3.38;;
57891;SDS011;43708;48.828;9.166;2023-04-01T06:01:30;4.25;;;3.30;;
57891;SDS011;43708;48.828;9.166;2023-04-01T06:03:56;4.40;;;3.53;;
57891;SDS011;43708;48.828;9.166;2023-04-01T06:06:25;3.80;;;2.92;;
57891;SDS011;43708;48.828;9.166;2023-04-01T06:08:55;2.63;;;2.13;;
57891;SDS011;43708;48.828;9.166;2023-04-01T06:11:32;3.72;;;2.92;;
57891;SDS011;43708;48.828;9.166;2023-04-01T06:20:03;3.83;;;2.80;;
57891;SDS011;43708;48.828;9.166;2023-04-01T06:22:58;3.88;;;2.90;;
57891;SDS011;43708;48.828;9.166;2023-04-01T06:31:55;2.55;;;2.20;;
57891;SDS011;43708;48.828;9.166;2023-04-01T06:34:42;3.33;;;2.45;;
57891;SDS011;43708;48.828;9.166;2023-04-01T06:37:37;2.42;;;1.90;;
57891;SDS011;43708;48.828;9.166;2023-04-01T06:46:05;3.42;;;2.72;;
57891;SDS011;43708;48.828;9.166;2023-04-01T06:54:17;2.55;;;2.03;;
57891;SDS011;43708;48.828;9.166;2023-04-01T06:56:47;2.40;;;1.92;;
57891;SDS011;43708;48.828;9.166;2023-04-01T06:59:21;2.38;;;1.98;;
57891;SDS011;43708;48.828;9.166;2023-04-01T07:01:52;2.20;;;1.85;;
57891;SDS011;43708;48.828;9.166;2023-04-01T07:04:46;2.67;;;2.08;;
57891;SDS011;43708;48.828;9.166;2023-04-01T07:10:09;4.40;;;2.05;;
57891;SDS011;43708;48.828;9.166;2023-04-01T07:12:51;3.78;;;2.30;;
57891;SDS011;43708;48.828;9.166;2023-04-01T07:15:23;2.10;;;1.67;;
57891;SDS011;43708;48.828;9.166;2023-04-01T07:18:05;2.83;;;2.10;;
57891;SDS011;43708;48.828;9.166;2023-04-01T07:20:41;3.95;;;2.03;;
57891;SDS011;43708;48.828;9.166;2023-04-01T07:23:13;3.00;;;2.00;;
57891;SDS011;43708;48.828;9.166;2023-04-01T07:25:47;2.22;;;1.80;;
57891;SDS011;43708;48.828;9.166;2023-04-01T07:28:21;2.47;;;2.10;;
57891;SDS011;43708;48.828;9.166;2023-04-01T07:33:15;2.38;;;2.03;;
57891;SDS011;43708;48.828;9.166;2023-04-01T07:35:52;1.83;;;1.67;;
57891;SDS011;43708;48.828;9.166;2023-04-01T07:41:27;1.58;;;1.48;;
57891;SDS011;43708;48.828;9.166;2023-04-01T07:55:40;1.30;;;1.10;;
57891;SDS011;43708;48.828;9.166;2023-04-01T07:59:00;1.40;;;1.30;;
57891;SDS011;43708;48.828;9.166;2023-04-01T08:01:10;1.77;;;1.40;;
57891;SDS011;43708;48.828;9.166;2023-04-01T08:04:22;1.42;;;1.15;;
57891;SDS011;43708;48.828;9.166;2023-04-01T08:17:32;1.70;;;0.98;;
57891;SDS011;43708;48.828;9.166;2023-04-01T08:25:37;1.73;;;1.10;;
57891;SDS011;43708;48.828;9.166;2023-04-01T08:30:45;0.98;;;0.85;;
57891;SDS011;43708;48.828;9.166;2023-04-01T08:33:32;1.48;;;1.08;;
57891;SDS011;43708;48.828;9.166;2023-04-01T08:36:01;5.60;;;0.95;;
57891;SDS011;43708;48.828;9.166;2023-04-01T08:38:36;2.45;;;1.17;;
57891;SDS011;43708;48.828;9.166;2023-04-01T08:52:36;3.72;;;0.80;;
57891;SDS011;43708;48.828;9.166;2023-04-01T08:57:45;0.57;;;0.57;;
57891;SDS011;43708;48.828;9.166;2023-04-01T09:00:37;0.90;;;0.73;;
57891;SDS011;43708;48.828;9.166;2023-04-01T09:09:02;0.85;;;0.60;;
57891;SDS011;43708;48.828;9.166;2023-04-01T09:20:19;0.88;;;0.50;;
57891;SDS011;43708;48.828;9.166;2023-04-01T09:45:32;0.90;;;0.30;;
57891;SDS011;43708;48.828;9.166;2023-04-01T09:51:19;2.28;;;0.40;;
57891;SDS011;43708;48.828;9.166;2023-04-01T10:02:26;0.95;;;0.32;;
57891;SDS011;43708;48.828;9.166;2023-04-01T10:11:48;0.70;;;0.40;;
57891;SDS011;43708;48.828;9.166;2023-04-01T10:27:51;0.30;;;0.20;;
57891;SDS011;43708;48.828;9.166;2023-04-01T10:47:39;1.05;;;0.30;;
57891;SDS011;43708;48.828;9.166;2023-04-01T10:50:24;0.52;;;0.32;;
57891;SDS011;43708;48.828;9.166;2023-04-01T10:53:02;0.40;;;0.30;;
57891;SDS011;43708;48.828;9.166;2023-04-01T11:02:08;0.30;;;0.20;;
57891;SDS011;43708;48.828;9.166;2023-04-01T11:15:58;0.60;;;0.30;;
57891;SDS011;43708;48.828;9.166;2023-04-01T11:24:46;1.08;;;0.40;;
57891;SDS011;43708;48.828;9.166;2023-04-01T11:27:50;0.52;;;0.30;;
57891;SDS011;43708;48.828;9.166;2023-04-01T11:42:11;0.77;;;0.50;;
57891;SDS011;43708;48.828;9.166;2023-04-01T11:44:45;0.50;;;0.10;;
57891;SDS011;43708;48.828;9.166;2023-04-01T11:55:58;0.50;;;0.40;;
57891;SDS011;43708;48.828;9.166;2023-04-01T12:01:28;0.85;;;0.40;;
57891;SDS011;43708;48.828;9.166;2023-04-01T12:15:16;0.52;;;0.30;;
57891;SDS011;43708;48.828;9.166;2023-04-01T12:17:54;0.50;;;0.20;;
57891;SDS011;43708;48.828;9.166;2023-04-01T12:23:52;0.30;;;0.20;;
57891;SDS011;43708;48.828;9.166;2023-04-01T12:26:30;0.40;;;0.10;;
57891;SDS011;43708;48.828;9.166;2023-04-01T12:32:30;0.70;;;0.40;;
57891;SDS011;43708;48.828;9.166;2023-04-01T12:35:27;0.40;;;0.30;;
57891;SDS011;43708;48.828;9.166;2023-04-01T12:53:37;0.30;;;0.20;;
57891;SDS011;43708;48.828;9.166;2023-04-01T13:01:59;0.60;;;0.30;;
57891;SDS011;43708;48.828;9.166;2023-04-01T13:04:38;0.30;;;0.30;;
57891;SDS011;43708;48.828;9.166;2023-04-01T13:07:21;0.50;;;0.20;;
57891;SDS011;43708;48.828;9.166;2023-04-01T13:15:33;0.50;;;0.20;;
57891;SDS011;43708;48.828;9.166;2023-04-01T13:18:32;1.23;;;0.60;;
57891;SDS011;43708;48.828;9.166;2023-04-01T13:21:43;0.40;;;0.30;;
57891;SDS011;43708;48.828;9.166;2023-04-01T13:32:44;0.30;;;0.20;;
57891;SDS011;43708;48.828;9.166;2023-04-01T13:35:20;0.40;;;0.20;;
57891;SDS011;43708;48.828;9.166;2023-04-01T13:43:47;0.40;;;0.22;;
57891;SDS011;43708;48.828;9.166;2023-04-01T13:49:22;0.30;;;0.20;;
57891;SDS011;43708;48.828;9.166;2023-04-01T14:00:47;1.15;;;0.30;;
57891;SDS011;43708;48.828;9.166;2023-04-01T14:03:44;0.40;;;0.17;;
57891;SDS011;43708;48.828;9.166;2023-04-01T14:21:01;1.48;;;0.30;;
57891;SDS011;43708;48.828;9.166;2023-04-01T14:34:03;0.45;;;0.20;;
57891;SDS011;43708;48.828;9.166;2023-04-01T14:50:24;3.78;;;0.60;;
57891;SDS011;43708;48.828;9.166;2023-04-01T14:52:56;0.82;;;0.40;;
57891;SDS011;43708;48.828;9.166;2023-04-01T15:00:48;0.68;;;0.50;;
57891;SDS011;43708;48.828;9.166;2023-04-01T15:03:36;3.05;;;0.70;;
57891;SDS011;43708;48.828;9.166;2023-04-01T15:09:03;1.17;;;0.60;;
57891;SDS011;43708;48.828;9.166;2023-04-01T15:14:13;0.85;;;0.50;;
57891;SDS011;43708;48.828;9.166;2023-04-01T15:22:43;2.10;;;0.43;;
57891;SDS011;43708;48.828;9.166;2023-04-01T15:34:00;0.43;;;0.28;;
57891;SDS011;43708;48.828;9.166;2023-04-01T15:52:37;3.20;;;1.63;;
57891;SDS011;43708;48.828;9.166;2023-04-01T15:58:03;1.75;;;1.55;;
57891;SDS011;43708;48.828;9.166;2023-04-01T16:03:30;3.20;;;1.90;;
57891;SDS011;43708;48.828;9.166;2023-04-01T16:11:39;1.73;;;1.20;;
57891;SDS011;43708;48.828;9.166;2023-04-01T16:14:31;2.20;;;1.83;;
57891;SDS011;43708;48.828;9.166;2023-04-01T16:20:14;2.05;;;1.30;;
57891;SDS011;43708;48.828;9.166;2023-04-01T16:23:00;1.48;;;1.30;;
57891;SDS011;43708;48.828;9.166;2023-04-01T16:25:52;1.20;;;1.10;;
57891;SDS011;43708;48.828;9.166;2023-04-01T16:34:02;0.80;;;0.68;;
57891;SDS011;43708;48.828;9.166;2023-04-01T16:36:37;1.85;;;0.80;;
57891;SDS011;43708;48.828;9.166;2023-04-01T16:39:33;1.25;;;0.75;;
57891;SDS011;43708;48.828;9.166;2023-04-01T16:45:17;0.50;;;0.50;;
57891;SDS011;43708;48.828;9.166;2023-04-01T16:47:56;0.60;;;0.60;;
57891;SDS011;43708;48.828;9.166;2023-04-01T16:50:39;1.45;;;0.95;;
57891;SDS011;43708;48.828;9.166;2023-04-01T16:58:21;15.98;;;13.57;;
57891;SDS011;43708;48.828;9.166;2023-04-01T17:01:04;18.20;;;15.30;;
57891;SDS011;43708;48.828;9.166;2023-04-01T17:03:44;19.23;;;16.63;;
57891;SDS011;43708;48.828;9.166;2023-04-01T17:12:05;18.05;;;15.90;;
57891;SDS011;43708;48.828;9.166;2023-04-01T17:14:54;16.17;;;13.55;;
57891;SDS011;43708;48.828;9.166;2023-04-01T17:17:31;17.98;;;15.73;;
57891;SDS011;43708;48.828;9.166;2023-04-01T17:20:10;15.57;;;13.73;;
57891;SDS011;43708;48.828;9.166;2023-04-01T17:26:23;15.75;;;13.48;;
57891;SDS011;43708;48.828;9.166;2023-04-01T17:28:49;16.25;;;13.18;;
57891;SDS011;43708;48.828;9.166;2023-04-01T17:34:27;12.18;;;9.82;;
57891;SDS011;43708;48.828;9.166;2023-04-01T18:07:33;9.30;;;8.15;;
57891;SDS011;43708;48.828;9.166;2023-04-01T18:10:21;7.95;;;6.68;;
57891;SDS011;43708;48.828;9.166;2023-04-01T18:16:02;8.13;;;7.22;;
57891;SDS011;43708;48.828;9.166;2023-04-01T18:18:47;7.38;;;6.45;;
57891;SDS011;43708;48.828;9.166;2023-04-01T18:21:45;5.50;;;4.95;;
57891;SDS011;43708;48.828;9.166;2023-04-01T18:24:45;4.50;;;3.72;;
57891;SDS011;43708;48.828;9.166;2023-04-01T18:28:11;4.22;;;3.53;;
57891;SDS011;43708;48.828;9.166;2023-04-01T18:30:49;3.65;;;3.28;;
57891;SDS011;43708;48.828;9.166;2023-04-01T18:38:52;2.63;;;2.42;;
57891;SDS011;43708;48.828;9.166;2023-04-01T18:49:58;2.30;;;2.10;;
57891;SDS011;43708;48.828;9.166;2023-04-01T18:52:45;1.67;;;1.58;;
57891;SDS011;43708;48.828;9.166;2023-04-01T18:55:20;1.80;;;1.50;;
57891;SDS011;43708;48.828;9.166;2023-04-01T18:57:52;1.60;;;1.50;;
57891;SDS011;43708;48.828;9.166;2023-04-01T19:05:53;1.60;;;1.40;;
57891;SDS011;43708;48.828;9.166;2023-04-01T19:08:28;2.65;;;1.52;;
57891;SDS011;43708;48.828;9.166;2023-04-01T19:13:48;1.20;;;1.00;;
57891;SDS011;43708;48.828;9.166;2023-04-01T19:26:56;1.95;;;1.63;;
57891;SDS011;43708;48.828;9.166;2023-04-01T19:29:42;1.70;;;1.20;;
57891;SDS011;43708;48.828;9.166;2023-04-01T19:32:43;1.40;;;1.17;;
57891;SDS011;43708;48.828;9.166;2023-04-01T19:43:33;2.25;;;1.67;;
57891;SDS011;43708;48.828;9.166;2023-04-01T19:57:15;1.20;;;1.10;;
57891;SDS011;43708;48.828;9.166;2023-04-01T20:02:27;1.20;;;1.10;;
57891;SDS011;43708;48.828;9.166;2023-04-01T20:05:25;1.30;;;1.20;;
57891;SDS011;43708;48.828;9.166;2023-04-01T20:07:54;1.20;;;1.10;;
57891;SDS011;43708;48.828;9.166;2023-04-01T20:15:43;1.30;;;1.10;;
57891;SDS011;43708;48.828;9.166;2023-04-01T20:18:14;1.35;;;1.20;;
57891;SDS011;43708;48.828;9.166;2023-04-01T20:21:00;2.13;;;1.10;;
57891;SDS011;43708;48.828;9.166;2023-04-01T20:23:40;1.13;;;1.02;;
57891;SDS011;43708;48.828;9.166;2023-04-01T20:26:33;1.77;;;1.25;;
57891;SDS011;43708;48.828;9.166;2023-04-01T20:34:49;1.33;;;1.13;;
57891;SDS011;43708;48.828;9.166;2023-04-01T20:48:31;1.00;;;0.93;;
57891;SDS011;43708;48.828;9.166;2023-04-01T21:04:22;2.00;;;0.98;;
57891;SDS011;43708;48.828;9.166;2023-04-01T21:07:04;1.20;;;1.10;;
57891;SDS011;43708;48.828;9.166;2023-04-01T21:09:55;1.38;;;0.90;;
57891;SDS011;43708;48.828;9.166;2023-04-01T21:12:40;1.08;;;0.98;;
57891;SDS011;43708;48.828;9.166;2023-04-01T21:15:26;0.95;;;0.95;;
57891;SDS011;43708;48.828;9.166;2023-04-01T21:23:29;1.30;;;1.20;;
57891;SDS011;43708;48.828;9.166;2023-04-01T21:28:34;1.00;;;0.90;;
57891;SDS011;43708;48.828;9.166;2023-04-01T21:31:13;0.90;;;0.90;;
57891;SDS011;43708;48.828;9.166;2023-04-01T21:45:46;1.35;;;1.08;;
57891;SDS011;43708;48.828;9.166;2023-04-01T21:51:21;0.88;;;0.77;;
57891;SDS011;43708;48.828;9.166;2023-04-01T21:54:08;0.80;;;0.80;;
57891;SDS011;43708;48.828;9.166;2023-04-01T21:59:37;0.90;;;0.90;;
57891;SDS011;43708;48.828;9.166;2023-04-01T22:02:35;1.00;;;0.90;;
57891;SDS011;43708;48.828;9.166;2023-04-01T22:13:45;0.80;;;0.80;;
57891;SDS011;43708;48.828;9.166;2023-04-01T22:16:30;1.00;;;0.88;;
57891;SDS011;43708;48.828;9.166;2023-04-01T22:19:12;0.98;;;0.85;;
57891;SDS011;43708;48.828;9.166;2023-04-01T22:24:29;0.88;;;0.88;;
57891;SDS011;43708;48.828;9.166;2023-04-01T22:26:59;1.15;;;0.93;;
57891;SDS011;43708;48.828;9.166;2023-04-01T22:29:32;1.02;;;0.73;;
57891;SDS011;43708;48.828;9.166;2023-04-01T22:32:11;0.80;;;0.75;;
57891;SDS011;43708;48.828;9.166;2023-04-01T22:40:35;0.68;;;0.68;;
57891;SDS011;43708;48.828;9.166;2023-04-01T22:49:06;0.75;;;0.75;;
57891;SDS011;43708;48.828;9.166;2023-04-01T22:51:50;1.15;;;0.63;;
57891;SDS011;43708;48.828;9.166;2023-04-01T22:57:15;0.80;;;0.80;;
57891;SDS011;43708;48.828;9.166;2023-04-01T22:59:53;1.17;;;0.90;;
57891;SDS011;43708;48.828;9.166;2023-04-01T23:02:32;1.35;;;0.70;;
57891;SDS011;43708;48.828;9.166;2023-04-01T23:05:03;1.20;;;0.60;;
57891;SDS011;43708;48.828;9.166;2023-04-01T23:10:52;1.10;;;0.70;;
57891;SDS011;43708;48.828;9.166;2023-04-01T23:13:25;0.70;;;0.70;;
57891;SDS011;43708;48.828;9.166;2023-04-01T23:15:57;0.63;;;0.63;;
57891;SDS011;43708;48.828;9.166;2023-04-01T23:18:27;0.80;;;0.70;;
57891;SDS011;43708;48.828;9.166;2023-04-01T23:26:39;0.80;;;0.80;;
57891;SDS011;43708;48.828;9.166;2023-04-01T23:29:11;0.63;;;0.60;;
57891;SDS011;43708;48.828;9.166;2023-04-01T23:31:44;1.25;;;0.75;;
57891;SDS011;43708;48.828;9.166;2023-04-01T23:36:37;0.73;;;0.65;;
57891;SDS011;43708;48.828;9.166;2023-04-01T23:39:11;1.00;;;0.55;;
57891;SDS011;43708;48.828;9.166;2023-04-01T23:41:39;0.85;;;0.70;;
57891;SDS011;43708;48.828;9.166;2023-04-01T23:44:08;0.70;;;0.70;;
57891;SDS011;43708;48.828;9.166;2023-04-01T23:46:36;0.50;;;0.50;;
57891;SDS011;43708;48.828;9.166;2023-04-01T23:49:04;0.68;;;0.68;;
57891;SDS011;43708;48.828;9.166;2023-04-01T23:51:38;0.65;;;0.60;;
57891;SDS011;43708;48.828;9.166;2023-04-01T23:54:18;0.80;;;0.80;;
57891;SDS011;43708;48.828;9.166;2023-04-01T23:56:53;0.68;;;0.68;;
